Skip to main content
 
Rock Springs-Sweetwater County Airport, Rock Springs, WY: 9/21/2023 21:54
Visibility10 statute milessun with broken clouds
View 7-Day Forecast
Sky/CloudsBroken at 11000ft
Weather [last 24 hours]None [rain began 01:06 ended 01:06 ]
Pressure30.09 in.Hg (1019 hPa)
Dew Point39 °F (3.9 °C)
Relative Humidity73.8 %
Last 24-Hour Precip.Trace
Reading TimePrecipitation
6-hr ending 9/21@05:54Trace
Temperature46.9 °F (8.3 °C)red thermometer
Wind Chill41.7 °F (5.38 °C)
Reading TimeMinimum to Maximum Temperature
6-hr ending 9/21@17:5457 °F to 71.1 °F (13.9 °C to 21.7 °C)
6-hr ending 9/21@11:5443 °F to 68 °F (6.1 °C to 20 °C)
6-hr ending 9/21@05:5443 °F to 53.1 °F (6.1 °C to 11.7 °C)
6-hr ending 9/20@23:5448 °F to 60.1 °F (8.9 °C to 15.6 °C)
24-hr ending 9/21@00:5444.1 °F to 71.1 °F (6.7 °C to 21.7 °C)
Wind11.5 MPH (10 KT) green arrow pointing 247.5 degrees
Wind FromWest/Southwest (240 Degrees)
Rolling 24-hr Peak Wind39.1 MPH (34 KT) on 9/21@17:06
Rolling 24-hr Peak Wind FromSouth/Southwest (200 Degrees)
Twilight Begins06:35
Sunrise07:03
Sunset19:15
Twilight Ends19:43
METARKRKS 220354Z AUTO 24010KT 10SM BKN110 08/04 A3009 RMK AO2 SLP136 T00830039